createdAt,value
2019-04-14T00:00:01.161Z,29.92
2019-04-14T00:02:40.325Z,28.40
2019-04-14T00:05:15.303Z,28.95
2019-04-14T00:10:20.372Z,28.47
2019-04-14T00:12:53.425Z,28.87
2019-04-14T00:17:59.002Z,28.17
2019-04-14T00:20:31.760Z,26.90
2019-04-14T00:23:04.372Z,27.42
2019-04-14T00:25:37.024Z,27.27
2019-04-14T00:28:09.491Z,27.27
2019-04-14T00:30:42.558Z,28.17
2019-04-14T00:33:19.245Z,29.70
2019-04-14T00:36:08.750Z,27.05
2019-04-14T00:38:43.216Z,29.27
2019-04-14T00:41:34.359Z,29.48
2019-04-14T00:43:57.740Z,28.38
2019-04-14T00:46:43.109Z,29.80
2019-04-14T00:49:15.748Z,30.82
2019-04-14T00:51:48.437Z,29.65
2019-04-14T00:54:20.192Z,28.92
2019-04-14T00:56:52.029Z,30.05
2019-04-14T00:59:24.535Z,31.65
2019-04-14T01:01:56.939Z,32.10
2019-04-14T01:04:29.472Z,33.95
2019-04-14T01:07:02.278Z,31.45
2019-04-14T01:09:34.793Z,32.10
2019-04-14T01:12:08.721Z,31.30
2019-04-14T01:14:40.931Z,29.98
2019-04-14T01:17:15.973Z,30.35
2019-04-14T01:19:48.432Z,29.67
2019-04-14T01:22:20.632Z,28.38
2019-04-14T01:24:53.297Z,27.98
2019-04-14T01:27:25.619Z,27.40
2019-04-14T01:29:58.140Z,28.23
2019-04-14T01:32:30.491Z,27.50
2019-04-14T01:35:03.084Z,26.12
2019-04-14T01:37:35.443Z,25.65
2019-04-14T01:40:09.952Z,25.00
2019-04-14T01:42:42.085Z,25.45
2019-04-14T01:45:16.466Z,25.45
2019-04-14T01:47:48.989Z,25.37
2019-04-14T01:50:23.450Z,24.45
2019-04-14T01:53:03.226Z,25.82
2019-04-14T01:55:43.886Z,24.30
2019-04-14T01:58:20.772Z,23.38
2019-04-14T02:00:55.333Z,25.08
2019-04-14T02:03:28.112Z,25.45
2019-04-14T02:06:00.381Z,24.87
2019-04-14T02:08:32.904Z,26.55
2019-04-14T02:11:05.217Z,26.85
2019-04-14T02:13:37.689Z,27.25
2019-04-14T02:16:18.776Z,25.72
2019-04-14T02:18:44.931Z,26.87
2019-04-14T02:21:17.228Z,27.65
2019-04-14T02:23:49.827Z,26.70
2019-04-14T02:26:22.049Z,27.17
2019-04-14T02:28:54.897Z,26.33
2019-04-14T02:31:53.502Z,26.55
2019-04-14T02:34:34.619Z,28.67
2019-04-14T02:42:17.560Z,29.55
2019-04-14T02:47:48.774Z,29.20
2019-04-14T02:52:20.588Z,29.32
2019-04-14T02:54:59.680Z,29.70
2019-04-14T02:57:41.663Z,31.77
2019-04-14T02:59:58.475Z,32.08
2019-04-14T03:05:01.866Z,32.15
2019-04-14T03:12:54.852Z,31.82
2019-04-14T03:15:35.326Z,31.93
2019-04-14T03:18:24.525Z,31.77
2019-04-14T03:21:09.253Z,32.33
2019-04-14T03:23:53.438Z,34.30
2019-04-14T03:26:26.171Z,32.67
2019-04-14T03:29:05.424Z,32.13
2019-04-14T03:32:07.451Z,32.33
2019-04-14T03:39:23.345Z,33.08
2019-04-14T03:41:56.588Z,34.38
2019-04-14T03:44:34.653Z,33.35
2019-04-14T03:49:42.892Z,33.45
2019-04-14T03:52:04.002Z,35.28
2019-04-14T03:54:36.637Z,35.33
2019-04-14T03:56:53.787Z,36.87
2019-04-14T03:59:26.144Z,37.38
2019-04-14T04:01:58.691Z,37.75
2019-04-14T04:04:31.576Z,36.65
2019-04-14T04:07:03.866Z,37.08
2019-04-14T04:09:43.424Z,36.48
2019-04-14T04:12:16.098Z,34.65
2019-04-14T04:14:48.511Z,38.95
2019-04-14T04:17:23.315Z,38.10
2019-04-14T04:20:04.556Z,36.60
2019-04-14T04:22:52.294Z,38.00
2019-04-14T04:25:26.642Z,38.73
2019-04-14T04:27:59.940Z,39.03
2019-04-14T04:30:36.383Z,39.35
2019-04-14T04:33:13.299Z,38.00
2019-04-14T04:35:58.703Z,39.13
2019-04-14T04:38:42.041Z,38.67
2019-04-14T04:41:16.837Z,37.60
2019-04-14T04:43:51.814Z,36.17
2019-04-14T04:46:26.584Z,35.35
2019-04-14T04:49:09.604Z,36.15
2019-04-14T04:51:35.706Z,37.70
2019-04-14T04:54:08.408Z,35.50
2019-04-14T04:56:40.512Z,35.43
2019-04-14T04:59:14.666Z,36.13
2019-04-14T05:01:47.319Z,34.43
2019-04-14T05:04:22.017Z,35.85
2019-04-14T05:07:01.538Z,35.80
2019-04-14T05:09:38.857Z,35.48
2019-04-14T05:12:15.816Z,34.83
2019-04-14T05:15:01.390Z,35.25
2019-04-14T05:17:41.013Z,35.35
2019-04-14T05:20:13.707Z,34.67
2019-04-14T05:22:46.173Z,32.90
2019-04-14T05:25:18.879Z,31.87
2019-04-14T05:27:51.634Z,34.90
2019-04-14T05:30:24.285Z,33.92
2019-04-14T05:32:56.549Z,35.00
2019-04-14T05:35:29.100Z,34.40
2019-04-14T05:38:02.596Z,32.75
2019-04-14T05:40:34.363Z,32.63
2019-04-14T05:43:28.382Z,32.95
2019-04-14T05:45:50.363Z,34.13
2019-04-14T05:48:22.887Z,32.13
2019-04-14T05:50:55.603Z,34.90
2019-04-14T05:53:28.275Z,33.55
2019-04-14T05:56:01.462Z,34.13
2019-04-14T05:58:34.526Z,33.98
2019-04-14T06:01:06.921Z,34.05
2019-04-14T06:03:38.814Z,35.50
2019-04-14T06:06:10.340Z,33.65
2019-04-14T06:08:43.157Z,33.65
2019-04-14T06:11:15.863Z,34.48
2019-04-14T06:13:49.065Z,35.35
2019-04-14T06:16:21.628Z,34.18
2019-04-14T06:18:53.254Z,33.88
2019-04-14T06:21:25.461Z,33.30
2019-04-14T06:23:58.826Z,33.08
2019-04-14T06:26:30.384Z,33.88
2019-04-14T06:29:01.932Z,33.40
2019-04-14T06:31:53.911Z,34.88
2019-04-14T06:34:34.551Z,33.60
2019-04-14T06:37:08.138Z,34.60
2019-04-14T06:39:44.461Z,35.60
2019-04-14T06:42:16.641Z,34.00
2019-04-14T06:44:49.394Z,32.15
2019-04-14T06:47:21.214Z,33.10
2019-04-14T06:49:53.142Z,33.20
2019-04-14T06:52:25.142Z,32.88
2019-04-14T06:54:56.844Z,32.42
2019-04-14T06:57:29.652Z,32.88
2019-04-14T07:00:02.343Z,33.92
2019-04-14T07:02:35.755Z,34.00
2019-04-14T07:05:08.923Z,32.30
2019-04-14T07:07:40.413Z,31.73
2019-04-14T07:10:12.479Z,30.62
2019-04-14T07:12:45.192Z,29.52
2019-04-14T07:15:17.065Z,30.17
2019-04-14T07:17:48.724Z,30.15
2019-04-14T07:20:20.682Z,31.97
2019-04-14T07:22:52.907Z,30.60
2019-04-14T07:25:26.510Z,31.90
2019-04-14T07:27:58.892Z,31.33
2019-04-14T07:30:43.346Z,31.93
2019-04-14T07:33:33.748Z,31.37
2019-04-14T07:36:13.013Z,33.18
2019-04-14T07:38:49.039Z,32.70
2019-04-14T07:41:34.892Z,31.45
2019-04-14T07:44:21.362Z,31.70
2019-04-14T07:47:08.263Z,32.25
2019-04-14T07:49:44.396Z,33.25
2019-04-14T07:52:29.992Z,30.80
2019-04-14T07:55:12.346Z,29.95
2019-04-14T07:58:04.101Z,28.80
2019-04-14T08:00:43.101Z,28.20
2019-04-14T08:03:22.846Z,28.92
2019-04-14T08:05:54.549Z,27.52
2019-04-14T08:08:26.526Z,28.20
2019-04-14T08:10:58.305Z,29.45
2019-04-14T08:13:30.040Z,28.65
2019-04-14T08:16:01.747Z,27.82
2019-04-14T08:18:33.285Z,28.52
2019-04-14T08:21:05.131Z,28.02
2019-04-14T08:23:36.734Z,27.25
2019-04-14T08:26:08.269Z,29.05
2019-04-14T08:28:41.209Z,28.70
2019-04-14T08:31:12.605Z,30.55
2019-04-14T08:33:44.259Z,29.70
2019-04-14T08:36:15.896Z,30.50
2019-04-14T08:38:48.984Z,28.85
2019-04-14T08:41:20.325Z,27.67
2019-04-14T08:43:56.280Z,28.42
2019-04-14T08:46:29.402Z,27.93
2019-04-14T08:49:02.583Z,30.00
2019-04-14T08:51:35.991Z,28.75
2019-04-14T08:54:09.248Z,28.77
2019-04-14T08:56:48.620Z,29.42
2019-04-14T08:59:30.743Z,30.25
2019-04-14T09:02:19.988Z,30.15
2019-04-14T09:04:55.685Z,27.80
2019-04-14T09:07:28.845Z,29.95
2019-04-14T09:10:17.095Z,29.25
2019-04-14T09:12:50.203Z,27.60
2019-04-14T09:15:22.280Z,20.85
2019-04-14T09:17:54.262Z,28.77
2019-04-14T09:20:25.939Z,28.15
2019-04-14T09:22:58.125Z,28.67
2019-04-14T09:25:30.228Z,29.27
2019-04-14T09:28:03.143Z,29.90
2019-04-14T09:30:36.161Z,30.60
2019-04-14T09:33:08.160Z,30.68
2019-04-14T09:35:47.804Z,31.52
2019-04-14T09:38:19.523Z,31.30
2019-04-14T09:40:51.601Z,32.65
2019-04-14T09:43:30.106Z,33.73
2019-04-14T09:46:02.566Z,28.67
2019-04-14T09:48:34.793Z,28.90
2019-04-14T09:51:06.472Z,27.20
2019-04-14T09:53:39.269Z,28.17
2019-04-14T09:56:10.926Z,28.70
2019-04-14T09:58:43.049Z,29.85
2019-04-14T10:01:14.964Z,29.65
2019-04-14T10:03:46.773Z,31.07
2019-04-14T10:06:18.478Z,28.52
2019-04-14T10:08:50.295Z,30.30
2019-04-14T10:11:22.001Z,29.23
2019-04-14T10:13:55.526Z,28.52
2019-04-14T10:16:33.727Z,30.20
2019-04-14T10:19:12.642Z,28.35
2019-04-14T10:21:46.038Z,28.07
2019-04-14T10:24:17.891Z,29.70
2019-04-14T10:26:54.992Z,31.00
2019-04-14T10:29:27.946Z,31.40
2019-04-14T10:32:01.153Z,33.35
2019-04-14T10:34:32.846Z,32.58
2019-04-14T10:37:05.828Z,33.33
2019-04-14T10:39:38.270Z,33.90
2019-04-14T10:42:10.551Z,32.83
2019-04-14T10:44:42.107Z,39.90
2019-04-14T10:47:13.783Z,38.40
2019-04-14T10:49:45.519Z,35.58
2019-04-14T10:52:18.898Z,36.20
2019-04-14T10:54:50.602Z,32.90
2019-04-14T10:57:25.200Z,33.75
2019-04-14T10:59:57.097Z,33.53
2019-04-14T11:02:28.988Z,31.48
2019-04-14T11:05:00.914Z,31.75
2019-04-14T11:07:32.545Z,32.05
2019-04-14T11:10:08.507Z,31.05
2019-04-14T11:12:41.175Z,31.97
2019-04-14T11:15:15.561Z,29.30
2019-04-14T11:17:47.306Z,30.95
2019-04-14T11:20:20.259Z,30.00
2019-04-14T11:23:02.767Z,29.55
2019-04-14T11:25:25.199Z,28.90
2019-04-14T11:27:57.853Z,29.50
2019-04-14T11:30:30.582Z,27.62
2019-04-14T11:33:09.919Z,28.27
2019-04-14T11:35:49.034Z,29.57
2019-04-14T11:38:25.740Z,28.98
2019-04-14T11:40:58.796Z,27.65
2019-04-14T11:43:30.464Z,27.83
2019-04-14T11:46:03.718Z,26.45
2019-04-14T11:48:36.737Z,28.40
2019-04-14T11:51:08.487Z,27.65
2019-04-14T11:53:40.579Z,27.10
2019-04-14T11:56:14.575Z,26.05
2019-04-14T11:58:46.121Z,24.57
2019-04-14T12:01:19.283Z,25.45
2019-04-14T12:04:04.855Z,24.80
2019-04-14T12:06:43.992Z,25.85
2019-04-14T12:09:32.654Z,25.20
2019-04-14T12:12:05.374Z,25.60
2019-04-14T12:14:37.228Z,24.92
2019-04-14T12:17:08.772Z,23.55
2019-04-14T12:19:41.089Z,24.35
2019-04-14T12:22:13.885Z,24.85
2019-04-14T12:24:45.395Z,25.08
2019-04-14T12:27:17.132Z,24.70
2019-04-14T12:29:50.094Z,25.20
2019-04-14T12:32:22.318Z,24.90
2019-04-14T12:34:53.970Z,25.27
2019-04-14T12:37:25.668Z,26.05
2019-04-14T12:39:58.302Z,25.27
2019-04-14T12:42:38.433Z,25.75
2019-04-14T12:45:32.458Z,26.20
2019-04-14T12:48:14.369Z,25.48
2019-04-14T12:50:53.357Z,24.40
2019-04-14T12:53:25.186Z,24.82
2019-04-14T12:55:56.883Z,25.45
2019-04-14T12:58:46.904Z,25.23
2019-04-14T13:01:21.048Z,25.82
2019-04-14T13:03:57.188Z,26.62
2019-04-14T13:06:28.868Z,27.13
2019-04-14T13:09:01.102Z,26.27
2019-04-14T13:11:33.961Z,26.25
2019-04-14T13:14:11.695Z,26.23
2019-04-14T13:16:44.457Z,26.97
2019-04-14T13:19:16.373Z,27.62
2019-04-14T13:21:48.271Z,28.65
2019-04-14T13:24:20.233Z,27.25
2019-04-14T13:26:52.475Z,28.30
2019-04-14T13:29:25.083Z,26.97
2019-04-14T13:31:57.328Z,25.85
2019-04-14T13:34:29.892Z,27.07
2019-04-14T13:37:01.676Z,25.70
2019-04-14T13:39:33.392Z,25.55
2019-04-14T13:44:43.010Z,26.02
2019-04-14T13:47:14.993Z,26.35
2019-04-14T13:49:47.960Z,25.20
2019-04-14T13:52:19.604Z,26.42
2019-04-14T13:54:52.471Z,26.57
2019-04-14T13:59:57.306Z,26.40
2019-04-14T14:02:30.724Z,25.77
2019-04-14T14:05:02.437Z,25.30
2019-04-14T14:07:34.015Z,25.80
2019-04-14T14:10:08.842Z,25.02
2019-04-14T14:12:47.739Z,26.35
2019-04-14T14:15:33.306Z,25.90
2019-04-14T14:18:22.947Z,28.15
2019-04-14T14:21:14.842Z,26.00
2019-04-14T14:23:48.175Z,26.82
2019-04-14T14:26:32.060Z,28.10
2019-04-14T14:29:03.977Z,29.63
2019-04-14T14:31:36.392Z,28.92
2019-04-14T14:34:11.289Z,28.40
2019-04-14T14:36:43.102Z,28.47
2019-04-14T14:39:16.233Z,27.75
2019-04-14T14:41:47.867Z,27.32
2019-04-14T14:44:22.676Z,27.15
2019-04-14T14:46:56.880Z,27.70
2019-04-14T14:49:45.563Z,28.38
2019-04-14T14:52:18.802Z,29.37
2019-04-14T14:54:53.189Z,27.22
2019-04-14T14:57:25.119Z,28.07
2019-04-14T14:59:57.243Z,28.70
2019-04-14T15:02:31.010Z,31.15
2019-04-14T15:05:04.887Z,30.48
2019-04-14T15:07:38.924Z,30.97
2019-04-14T15:10:13.517Z,29.95
2019-04-14T15:12:48.201Z,28.47
2019-04-14T15:15:20.337Z,30.00
2019-04-14T15:17:58.375Z,30.17
2019-04-14T15:23:03.640Z,27.48
2019-04-14T15:25:36.730Z,28.07
2019-04-14T15:28:09.413Z,27.80
2019-04-14T15:30:41.558Z,27.70
2019-04-14T15:33:13.425Z,30.92
2019-04-14T15:35:46.245Z,27.87
2019-04-14T15:38:17.941Z,27.45
2019-04-14T15:40:51.664Z,26.55
2019-04-14T15:43:24.043Z,26.33
2019-04-14T15:45:57.007Z,28.55
2019-04-14T15:48:28.778Z,28.38
2019-04-14T15:51:00.684Z,27.00
2019-04-14T15:53:38.237Z,28.02
2019-04-14T15:56:10.152Z,28.45
2019-04-14T15:58:50.047Z,28.85
2019-04-14T16:01:33.475Z,26.65
2019-04-14T16:04:10.670Z,28.00
2019-04-14T16:06:44.107Z,28.10
2019-04-14T16:09:25.008Z,28.15
2019-04-14T16:12:01.209Z,27.22
2019-04-14T16:14:50.974Z,26.85
2019-04-14T16:17:30.998Z,27.37
2019-04-14T16:20:07.787Z,27.73
2019-04-14T16:22:39.352Z,28.45
2019-04-14T16:25:11.204Z,28.77
2019-04-14T16:28:02.132Z,27.48
2019-04-14T16:30:55.476Z,28.60
2019-04-14T16:33:29.164Z,27.52
2019-04-14T16:36:01.076Z,26.10
2019-04-14T16:38:33.661Z,26.60
2019-04-14T16:41:12.862Z,25.88
2019-04-14T16:43:45.030Z,26.48
2019-04-14T16:46:18.575Z,26.12
2019-04-14T16:48:51.844Z,27.17
2019-04-14T16:51:28.519Z,25.25
2019-04-14T16:54:03.518Z,26.65
2019-04-14T16:56:53.453Z,26.68
2019-04-14T16:59:27.031Z,26.07
2019-04-14T17:02:10.357Z,24.75
2019-04-14T17:04:33.247Z,26.37
2019-04-14T17:07:12.815Z,24.95
2019-04-14T17:09:45.768Z,24.32
2019-04-14T17:12:19.346Z,22.82
2019-04-14T17:14:58.938Z,24.05
2019-04-14T17:17:44.791Z,25.15
2019-04-14T17:20:22.906Z,23.65
2019-04-14T17:23:05.425Z,23.55
2019-04-14T17:25:41.669Z,24.05
2019-04-14T17:28:15.388Z,23.75
2019-04-14T17:30:48.820Z,22.90
2019-04-14T17:33:22.497Z,22.67
2019-04-14T17:36:12.474Z,24.70
2019-04-14T17:39:07.190Z,26.17
2019-04-14T17:42:01.375Z,24.90
2019-04-14T17:44:34.951Z,23.52
2019-04-14T17:47:14.926Z,25.25
2019-04-14T17:50:05.072Z,24.15
2019-04-14T17:52:39.618Z,26.90
2019-04-14T17:55:17.768Z,24.55
2019-04-14T17:57:54.065Z,22.75
2019-04-14T18:00:32.086Z,23.67
2019-04-14T18:03:13.144Z,22.62
2019-04-14T18:05:56.838Z,23.02
2019-04-14T18:08:36.143Z,21.93
2019-04-14T18:11:30.081Z,21.87
2019-04-14T18:14:11.552Z,21.62
2019-04-14T18:19:35.313Z,22.17
2019-04-14T18:22:07.595Z,21.45
2019-04-14T18:24:42.593Z,20.45
2019-04-14T18:27:16.686Z,21.85
2019-04-14T18:29:53.193Z,21.30
2019-04-14T18:32:36.169Z,20.95
2019-04-14T18:35:15.479Z,21.48
2019-04-14T18:37:49.436Z,21.77
2019-04-14T18:40:28.653Z,22.05
2019-04-14T18:43:15.969Z,21.73
2019-04-14T18:45:58.344Z,22.70
2019-04-14T18:48:35.229Z,22.35
2019-04-14T18:51:08.912Z,22.62
2019-04-14T18:53:49.728Z,21.02
2019-04-14T18:56:25.742Z,20.85
2019-04-14T18:59:15.567Z,20.65
2019-04-14T19:01:53.607Z,21.17
2019-04-14T19:04:27.985Z,22.15
2019-04-14T19:07:02.345Z,23.05
2019-04-14T19:09:34.884Z,23.22
2019-04-14T19:12:20.595Z,22.00
2019-04-14T19:15:02.197Z,23.12
2019-04-14T19:17:38.663Z,22.15
2019-04-14T19:20:11.570Z,22.35
2019-04-14T19:22:42.999Z,22.67
2019-04-14T19:25:16.956Z,22.85
2019-04-14T19:27:48.781Z,23.62
2019-04-14T19:30:20.766Z,23.65
2019-04-14T19:32:57.646Z,22.60
2019-04-14T19:35:33.827Z,23.22
2019-04-14T19:38:09.863Z,23.27
2019-04-14T19:40:42.933Z,24.05
2019-04-14T19:43:23.570Z,23.62
2019-04-14T19:45:52.217Z,22.40
2019-04-14T19:48:23.822Z,23.40
2019-04-14T19:50:57.010Z,24.05
2019-04-14T19:53:28.809Z,24.73
2019-04-14T19:56:00.670Z,21.70
2019-04-14T19:58:32.547Z,21.62
2019-04-14T20:01:07.992Z,21.73
2019-04-14T20:03:44.021Z,23.18
2019-04-14T20:06:17.401Z,21.90
2019-04-14T20:08:51.212Z,23.60
2019-04-14T20:11:27.445Z,22.15
2019-04-14T20:14:01.178Z,23.65
2019-04-14T20:16:41.255Z,21.42
2019-04-14T20:19:24.665Z,22.10
2019-04-14T20:22:04.130Z,22.27
2019-04-14T20:24:51.360Z,23.00
2019-04-14T20:27:37.121Z,23.47
2019-04-14T20:30:14.387Z,25.65
2019-04-14T20:32:46.379Z,27.30
2019-04-14T20:35:18.378Z,24.82
2019-04-14T20:37:50.484Z,24.55
2019-04-14T20:40:26.275Z,23.57
2019-04-14T20:43:03.330Z,24.20
2019-04-14T20:45:44.184Z,23.85
2019-04-14T20:48:23.199Z,23.35
2019-04-14T20:50:56.589Z,23.32
2019-04-14T20:53:32.577Z,24.23
2019-04-14T20:56:04.533Z,23.55
2019-04-14T20:58:36.401Z,23.07
2019-04-14T21:01:09.791Z,23.15
2019-04-14T21:03:49.107Z,23.52
2019-04-14T21:06:22.567Z,23.47
2019-04-14T21:09:11.282Z,22.58
2019-04-14T21:12:01.602Z,23.10
2019-04-14T21:14:40.848Z,25.08
2019-04-14T21:17:31.654Z,28.87
2019-04-14T21:20:21.059Z,24.40
2019-04-14T21:23:00.012Z,24.55
2019-04-14T21:25:37.191Z,23.85
2019-04-14T21:28:15.708Z,24.87
2019-04-14T21:30:58.284Z,24.30
2019-04-14T21:33:43.873Z,22.42
2019-04-14T21:36:35.496Z,23.35
2019-04-14T21:39:12.208Z,21.52
2019-04-14T21:41:46.794Z,19.98
2019-04-14T21:44:18.683Z,20.85
2019-04-14T21:46:50.435Z,20.27
2019-04-14T21:49:22.103Z,20.30
2019-04-14T21:52:08.236Z,21.02
2019-04-14T21:54:41.489Z,22.80
2019-04-14T21:57:33.998Z,20.77
2019-04-14T22:00:27.090Z,17.73
2019-04-14T22:05:49.008Z,16.00
2019-04-14T22:08:34.381Z,17.52
2019-04-14T22:11:21.124Z,19.05
2019-04-14T22:13:53.016Z,17.70
2019-04-14T22:16:27.311Z,18.30
2019-04-14T22:18:59.472Z,18.12
2019-04-14T22:21:31.296Z,17.42
2019-04-14T22:24:03.090Z,18.10
2019-04-14T22:26:34.902Z,17.25
2019-04-14T22:29:06.803Z,17.77
2019-04-14T22:31:38.621Z,17.17
2019-04-14T22:34:10.546Z,16.87
2019-04-14T22:36:43.011Z,15.58
2019-04-14T22:39:16.412Z,16.10
2019-04-14T22:41:48.182Z,15.75
2019-04-14T22:44:20.444Z,16.00
2019-04-14T22:46:53.140Z,16.25
2019-04-14T22:49:25.304Z,16.85
2019-04-14T22:51:57.856Z,15.85
2019-04-14T22:54:29.643Z,16.00
2019-04-14T22:57:02.089Z,15.55
2019-04-14T22:59:33.674Z,14.30
2019-04-14T23:02:16.260Z,14.85
2019-04-14T23:05:07.799Z,14.25
2019-04-14T23:07:44.207Z,15.23
2019-04-14T23:10:20.837Z,16.10
2019-04-14T23:13:06.673Z,14.28
2019-04-14T23:15:58.002Z,16.02
2019-04-14T23:18:46.189Z,15.60
2019-04-14T23:21:23.685Z,15.35
2019-04-14T23:24:05.694Z,15.70
2019-04-14T23:26:37.312Z,15.65
2019-04-14T23:29:08.935Z,14.63
2019-04-14T23:31:40.699Z,13.83
2019-04-14T23:34:12.343Z,14.43
2019-04-14T23:36:43.909Z,14.07
2019-04-14T23:39:15.379Z,13.15
2019-04-14T23:41:47.217Z,12.55
2019-04-14T23:44:19.821Z,12.85
2019-04-14T23:46:54.448Z,12.25
2019-04-14T23:49:26.274Z,12.45
2019-04-14T23:51:57.913Z,12.88
2019-04-14T23:54:29.557Z,14.03
2019-04-14T23:57:06.023Z,13.62
2019-04-14T23:59:34.640Z,12.95
